sensor_id;sensor_type;location;lat;lon;timestamp;temperature;humidity
41447;DHT22;27185;52.040;4.490;2023-05-07T00:00:00;16.80;99.90
41447;DHT22;27185;52.040;4.490;2023-05-07T00:02:46;16.90;99.90
41447;DHT22;27185;52.040;4.490;2023-05-07T00:05:32;16.80;99.90
41447;DHT22;27185;52.040;4.490;2023-05-07T00:08:18;16.80;99.90
41447;DHT22;27185;52.040;4.490;2023-05-07T00:11:03;16.90;99.90
41447;DHT22;27185;52.040;4.490;2023-05-07T00:13:50;16.80;99.90
41447;DHT22;27185;52.040;4.490;2023-05-07T00:16:35;16.90;99.90
41447;DHT22;27185;52.040;4.490;2023-05-07T00:19:21;16.80;99.90
41447;DHT22;27185;52.040;4.490;2023-05-07T00:22:07;16.80;99.90
41447;DHT22;27185;52.040;4.490;2023-05-07T00:24:53;16.80;99.90
41447;DHT22;27185;52.040;4.490;2023-05-07T00:27:39;16.80;99.90
41447;DHT22;27185;52.040;4.490;2023-05-07T00:30:24;16.80;99.90
41447;DHT22;27185;52.040;4.490;2023-05-07T00:33:10;16.80;99.90
41447;DHT22;27185;52.040;4.490;2023-05-07T00:35:56;16.80;99.90
41447;DHT22;27185;52.040;4.490;2023-05-07T00:38:41;16.80;99.90
41447;DHT22;27185;52.040;4.490;2023-05-07T00:41:27;16.70;99.90
41447;DHT22;27185;52.040;4.490;2023-05-07T00:44:13;16.70;99.90
41447;DHT22;27185;52.040;4.490;2023-05-07T00:47:01;16.70;99.90
41447;DHT22;27185;52.040;4.490;2023-05-07T00:49:47;16.60;99.90
41447;DHT22;27185;52.040;4.490;2023-05-07T00:52:33;16.60;99.90
41447;DHT22;27185;52.040;4.490;2023-05-07T00:55:19;16.60;99.90
41447;DHT22;27185;52.040;4.490;2023-05-07T00:58:05;16.60;99.90
41447;DHT22;27185;52.040;4.490;2023-05-07T01:00:51;16.60;99.90
41447;DHT22;27185;52.040;4.490;2023-05-07T01:03:37;16.60;99.90
41447;DHT22;27185;52.040;4.490;2023-05-07T01:06:23;16.60;99.90
41447;DHT22;27185;52.040;4.490;2023-05-07T01:09:11;16.60;99.90
41447;DHT22;27185;52.040;4.490;2023-05-07T01:11:57;16.60;99.90
41447;DHT22;27185;52.040;4.490;2023-05-07T01:14:43;16.60;99.90
41447;DHT22;27185;52.040;4.490;2023-05-07T01:17:29;16.60;99.90
41447;DHT22;27185;52.040;4.490;2023-05-07T01:20:15;16.60;99.90
41447;DHT22;27185;52.040;4.490;2023-05-07T01:23:01;16.60;99.90
41447;DHT22;27185;52.040;4.490;2023-05-07T01:25:52;16.60;99.90
41447;DHT22;27185;52.040;4.490;2023-05-07T01:28:38;16.60;99.90
41447;DHT22;27185;52.040;4.490;2023-05-07T01:31:24;16.50;99.90
41447;DHT22;27185;52.040;4.490;2023-05-07T01:34:12;16.50;99.90
41447;DHT22;27185;52.040;4.490;2023-05-07T01:36:59;16.50;99.90
41447;DHT22;27185;52.040;4.490;2023-05-07T01:39:44;16.40;99.90
41447;DHT22;27185;52.040;4.490;2023-05-07T01:42:30;16.40;99.90
41447;DHT22;27185;52.040;4.490;2023-05-07T01:45:16;16.40;99.90
41447;DHT22;27185;52.040;4.490;2023-05-07T01:48:03;16.30;99.90
41447;DHT22;27185;52.040;4.490;2023-05-07T01:50:49;16.30;99.90
41447;DHT22;27185;52.040;4.490;2023-05-07T01:53:36;16.20;99.90
41447;DHT22;27185;52.040;4.490;2023-05-07T01:56:22;16.20;99.90
41447;DHT22;27185;52.040;4.490;2023-05-07T01:59:07;16.20;99.90
41447;DHT22;27185;52.040;4.490;2023-05-07T02:01:53;16.20;99.90
41447;DHT22;27185;52.040;4.490;2023-05-07T02:04:39;16.20;99.90
41447;DHT22;27185;52.040;4.490;2023-05-07T02:07:24;16.20;99.90
41447;DHT22;27185;52.040;4.490;2023-05-07T02:10:10;16.30;99.90
41447;DHT22;27185;52.040;4.490;2023-05-07T02:12:55;16.30;99.90
41447;DHT22;27185;52.040;4.490;2023-05-07T02:15:41;16.40;99.90
41447;DHT22;27185;52.040;4.490;2023-05-07T02:18:26;16.40;99.90
41447;DHT22;27185;52.040;4.490;2023-05-07T02:21:12;16.40;99.90
41447;DHT22;27185;52.040;4.490;2023-05-07T02:23:58;16.40;99.90
41447;DHT22;27185;52.040;4.490;2023-05-07T02:26:43;16.50;99.90
41447;DHT22;27185;52.040;4.490;2023-05-07T02:29:29;16.50;99.90
41447;DHT22;27185;52.040;4.490;2023-05-07T02:32:15;16.50;99.90
41447;DHT22;27185;52.040;4.490;2023-05-07T02:35:00;16.50;99.90
41447;DHT22;27185;52.040;4.490;2023-05-07T02:37:46;16.50;99.90
41447;DHT22;27185;52.040;4.490;2023-05-07T02:40:31;16.60;99.90
41447;DHT22;27185;52.040;4.490;2023-05-07T02:43:18;16.50;99.90
41447;DHT22;27185;52.040;4.490;2023-05-07T02:46:08;16.60;99.90
41447;DHT22;27185;52.040;4.490;2023-05-07T02:48:54;16.50;99.90
41447;DHT22;27185;52.040;4.490;2023-05-07T02:51:39;16.60;99.90
41447;DHT22;27185;52.040;4.490;2023-05-07T02:54:25;16.60;99.90
41447;DHT22;27185;52.040;4.490;2023-05-07T02:57:10;16.60;99.90
41447;DHT22;27185;52.040;4.490;2023-05-07T02:59:58;16.60;99.90
41447;DHT22;27185;52.040;4.490;2023-05-07T03:02:44;16.60;99.90
41447;DHT22;27185;52.040;4.490;2023-05-07T03:05:30;16.60;99.90
41447;DHT22;27185;52.040;4.490;2023-05-07T03:08:15;16.60;99.90
41447;DHT22;27185;52.040;4.490;2023-05-07T03:11:01;16.70;99.90
41447;DHT22;27185;52.040;4.490;2023-05-07T03:13:46;16.70;99.90
41447;DHT22;27185;52.040;4.490;2023-05-07T03:16:34;16.70;99.90
41447;DHT22;27185;52.040;4.490;2023-05-07T03:19:19;16.70;99.90
41447;DHT22;27185;52.040;4.490;2023-05-07T03:22:05;16.70;99.90
41447;DHT22;27185;52.040;4.490;2023-05-07T03:24:51;16.70;99.90
41447;DHT22;27185;52.040;4.490;2023-05-07T03:27:36;16.80;99.90
41447;DHT22;27185;52.040;4.490;2023-05-07T03:30:22;16.80;99.90
41447;DHT22;27185;52.040;4.490;2023-05-07T03:33:08;16.80;99.90
41447;DHT22;27185;52.040;4.490;2023-05-07T03:35:53;16.80;99.90
41447;DHT22;27185;52.040;4.490;2023-05-07T03:38:39;16.80;99.90
41447;DHT22;27185;52.040;4.490;2023-05-07T03:41:24;16.80;99.90
41447;DHT22;27185;52.040;4.490;2023-05-07T03:44:11;16.80;99.90
41447;DHT22;27185;52.040;4.490;2023-05-07T03:46:56;16.90;99.90
41447;DHT22;27185;52.040;4.490;2023-05-07T03:49:42;16.90;99.90
41447;DHT22;27185;52.040;4.490;2023-05-07T03:52:27;16.80;99.90
41447;DHT22;27185;52.040;4.490;2023-05-07T03:55:13;16.90;99.90
41447;DHT22;27185;52.040;4.490;2023-05-07T03:57:58;16.80;99.90
41447;DHT22;27185;52.040;4.490;2023-05-07T04:00:44;16.90;99.90
41447;DHT22;27185;52.040;4.490;2023-05-07T04:03:30;16.90;99.90
41447;DHT22;27185;52.040;4.490;2023-05-07T04:06:16;16.90;99.90
41447;DHT22;27185;52.040;4.490;2023-05-07T04:09:02;16.90;99.90
41447;DHT22;27185;52.040;4.490;2023-05-07T04:11:48;16.90;99.90
41447;DHT22;27185;52.040;4.490;2023-05-07T04:14:33;16.90;99.90
41447;DHT22;27185;52.040;4.490;2023-05-07T04:17:19;16.90;99.90
41447;DHT22;27185;52.040;4.490;2023-05-07T04:20:05;16.80;99.90
41447;DHT22;27185;52.040;4.490;2023-05-07T04:22:52;16.90;99.90
41447;DHT22;27185;52.040;4.490;2023-05-07T04:25:38;16.90;99.90
41447;DHT22;27185;52.040;4.490;2023-05-07T04:28:24;16.90;99.90
41447;DHT22;27185;52.040;4.490;2023-05-07T04:31:09;16.90;99.90
41447;DHT22;27185;52.040;4.490;2023-05-07T04:33:55;16.90;99.90
41447;DHT22;27185;52.040;4.490;2023-05-07T04:36:41;16.90;99.90
41447;DHT22;27185;52.040;4.490;2023-05-07T04:39:27;16.90;99.90
41447;DHT22;27185;52.040;4.490;2023-05-07T04:42:16;17.00;99.90
41447;DHT22;27185;52.040;4.490;2023-05-07T04:45:03;17.00;99.90
41447;DHT22;27185;52.040;4.490;2023-05-07T04:47:50;17.00;99.90
41447;DHT22;27185;52.040;4.490;2023-05-07T04:50:35;17.00;99.90
41447;DHT22;27185;52.040;4.490;2023-05-07T04:53:21;17.00;99.90
41447;DHT22;27185;52.040;4.490;2023-05-07T04:56:07;17.00;99.90
41447;DHT22;27185;52.040;4.490;2023-05-07T04:58:53;17.00;99.90
41447;DHT22;27185;52.040;4.490;2023-05-07T05:01:38;17.00;99.90
41447;DHT22;27185;52.040;4.490;2023-05-07T05:04:25;17.00;99.90
41447;DHT22;27185;52.040;4.490;2023-05-07T05:07:11;17.00;99.90
41447;DHT22;27185;52.040;4.490;2023-05-07T05:09:56;17.00;99.90
41447;DHT22;27185;52.040;4.490;2023-05-07T05:12:43;17.10;99.90
41447;DHT22;27185;52.040;4.490;2023-05-07T05:15:28;17.10;99.90
41447;DHT22;27185;52.040;4.490;2023-05-07T05:18:14;17.10;99.90
41447;DHT22;27185;52.040;4.490;2023-05-07T05:21:00;17.20;99.90
41447;DHT22;27185;52.040;4.490;2023-05-07T05:23:45;17.20;99.90
41447;DHT22;27185;52.040;4.490;2023-05-07T05:26:31;17.30;99.90
41447;DHT22;27185;52.040;4.490;2023-05-07T05:29:16;17.30;99.90
41447;DHT22;27185;52.040;4.490;2023-05-07T05:32:02;17.30;99.90
41447;DHT22;27185;52.040;4.490;2023-05-07T05:34:47;17.40;99.90
41447;DHT22;27185;52.040;4.490;2023-05-07T05:37:33;17.40;99.90
41447;DHT22;27185;52.040;4.490;2023-05-07T05:40:19;17.50;99.90
41447;DHT22;27185;52.040;4.490;2023-05-07T05:43:05;17.50;99.90
41447;DHT22;27185;52.040;4.490;2023-05-07T05:45:51;17.50;99.90
41447;DHT22;27185;52.040;4.490;2023-05-07T05:48:36;17.60;99.90
41447;DHT22;27185;52.040;4.490;2023-05-07T05:51:22;17.60;99.90
41447;DHT22;27185;52.040;4.490;2023-05-07T05:54:08;17.70;99.90
41447;DHT22;27185;52.040;4.490;2023-05-07T05:56:54;17.70;99.90
41447;DHT22;27185;52.040;4.490;2023-05-07T05:59:39;17.70;99.90
41447;DHT22;27185;52.040;4.490;2023-05-07T06:02:25;17.80;99.90
41447;DHT22;27185;52.040;4.490;2023-05-07T06:05:10;17.80;99.90
41447;DHT22;27185;52.040;4.490;2023-05-07T06:07:56;17.90;99.90
41447;DHT22;27185;52.040;4.490;2023-05-07T06:10:41;18.00;99.90
41447;DHT22;27185;52.040;4.490;2023-05-07T06:13:27;18.10;99.90
41447;DHT22;27185;52.040;4.490;2023-05-07T06:16:13;18.10;99.90
41447;DHT22;27185;52.040;4.490;2023-05-07T06:18:59;18.20;99.90
41447;DHT22;27185;52.040;4.490;2023-05-07T06:21:44;18.30;99.90
41447;DHT22;27185;52.040;4.490;2023-05-07T06:24:30;18.30;99.90
41447;DHT22;27185;52.040;4.490;2023-05-07T06:27:15;18.40;99.90
41447;DHT22;27185;52.040;4.490;2023-05-07T06:30:01;18.50;99.90
41447;DHT22;27185;52.040;4.490;2023-05-07T06:32:47;18.60;99.90
41447;DHT22;27185;52.040;4.490;2023-05-07T06:35:32;18.80;99.90
41447;DHT22;27185;52.040;4.490;2023-05-07T06:38:18;18.80;99.90
41447;DHT22;27185;52.040;4.490;2023-05-07T06:41:05;18.90;99.90
41447;DHT22;27185;52.040;4.490;2023-05-07T06:43:50;19.00;99.90
41447;DHT22;27185;52.040;4.490;2023-05-07T06:46:36;19.00;99.90
41447;DHT22;27185;52.040;4.490;2023-05-07T06:49:22;19.00;99.90
41447;DHT22;27185;52.040;4.490;2023-05-07T06:52:07;18.90;99.90
41447;DHT22;27185;52.040;4.490;2023-05-07T06:54:53;18.90;99.90
41447;DHT22;27185;52.040;4.490;2023-05-07T06:57:38;18.90;99.90
41447;DHT22;27185;52.040;4.490;2023-05-07T07:00:24;19.00;99.90
41447;DHT22;27185;52.040;4.490;2023-05-07T07:03:10;19.00;99.90
41447;DHT22;27185;52.040;4.490;2023-05-07T07:05:56;19.00;99.90
41447;DHT22;27185;52.040;4.490;2023-05-07T07:08:41;19.10;99.90
41447;DHT22;27185;52.040;4.490;2023-05-07T07:11:27;19.10;99.90
41447;DHT22;27185;52.040;4.490;2023-05-07T07:14:12;19.10;99.90
41447;DHT22;27185;52.040;4.490;2023-05-07T07:16:58;19.20;99.90
41447;DHT22;27185;52.040;4.490;2023-05-07T07:19:44;19.30;99.90
41447;DHT22;27185;52.040;4.490;2023-05-07T07:22:29;19.30;99.90
41447;DHT22;27185;52.040;4.490;2023-05-07T07:25:15;19.40;99.90
41447;DHT22;27185;52.040;4.490;2023-05-07T07:28:00;19.50;99.90
41447;DHT22;27185;52.040;4.490;2023-05-07T07:30:46;19.60;99.90
41447;DHT22;27185;52.040;4.490;2023-05-07T07:33:31;19.70;99.90
41447;DHT22;27185;52.040;4.490;2023-05-07T07:36:17;19.90;99.90
41447;DHT22;27185;52.040;4.490;2023-05-07T07:39:03;20.00;99.90
41447;DHT22;27185;52.040;4.490;2023-05-07T07:41:48;20.10;99.90
41447;DHT22;27185;52.040;4.490;2023-05-07T07:44:34;20.20;99.90
41447;DHT22;27185;52.040;4.490;2023-05-07T07:47:19;20.30;99.90
41447;DHT22;27185;52.040;4.490;2023-05-07T07:50:05;20.40;99.90
41447;DHT22;27185;52.040;4.490;2023-05-07T07:52:51;20.60;99.90
41447;DHT22;27185;52.040;4.490;2023-05-07T07:55:40;20.70;99.90
41447;DHT22;27185;52.040;4.490;2023-05-07T07:58:26;20.90;99.90
41447;DHT22;27185;52.040;4.490;2023-05-07T08:01:11;21.10;99.90
41447;DHT22;27185;52.040;4.490;2023-05-07T08:03:58;21.30;99.90
41447;DHT22;27185;52.040;4.490;2023-05-07T08:06:44;21.40;99.90
41447;DHT22;27185;52.040;4.490;2023-05-07T08:09:29;21.60;99.90
41447;DHT22;27185;52.040;4.490;2023-05-07T08:12:15;21.80;99.90
41447;DHT22;27185;52.040;4.490;2023-05-07T08:15:00;22.00;99.90
41447;DHT22;27185;52.040;4.490;2023-05-07T08:17:46;22.10;99.90
41447;DHT22;27185;52.040;4.490;2023-05-07T08:20:32;22.40;99.90
41447;DHT22;27185;52.040;4.490;2023-05-07T08:23:18;22.60;99.90
41447;DHT22;27185;52.040;4.490;2023-05-07T08:26:04;22.70;99.90
41447;DHT22;27185;52.040;4.490;2023-05-07T08:28:49;22.90;99.90
41447;DHT22;27185;52.040;4.490;2023-05-07T08:31:35;23.00;99.90
41447;DHT22;27185;52.040;4.490;2023-05-07T08:34:21;23.10;99.90
41447;DHT22;27185;52.040;4.490;2023-05-07T08:37:07;23.10;99.90
41447;DHT22;27185;52.040;4.490;2023-05-07T08:39:53;23.20;99.90
41447;DHT22;27185;52.040;4.490;2023-05-07T08:42:40;23.30;99.90
41447;DHT22;27185;52.040;4.490;2023-05-07T08:45:28;23.30;99.90
41447;DHT22;27185;52.040;4.490;2023-05-07T08:48:17;23.30;99.90
41447;DHT22;27185;52.040;4.490;2023-05-07T08:51:02;23.30;99.90
41447;DHT22;27185;52.040;4.490;2023-05-07T08:53:49;23.40;99.90
41447;DHT22;27185;52.040;4.490;2023-05-07T08:56:35;23.40;99.90
41447;DHT22;27185;52.040;4.490;2023-05-07T08:59:21;23.50;99.90
41447;DHT22;27185;52.040;4.490;2023-05-07T09:02:08;23.60;99.90
41447;DHT22;27185;52.040;4.490;2023-05-07T09:04:54;23.70;99.90
41447;DHT22;27185;52.040;4.490;2023-05-07T09:07:40;23.90;99.90
41447;DHT22;27185;52.040;4.490;2023-05-07T09:10:26;23.90;99.90
41447;DHT22;27185;52.040;4.490;2023-05-07T09:13:12;24.00;99.90
41447;DHT22;27185;52.040;4.490;2023-05-07T09:16:10;24.20;99.90
41447;DHT22;27185;52.040;4.490;2023-05-07T09:18:58;24.40;99.90
41447;DHT22;27185;52.040;4.490;2023-05-07T09:21:44;24.50;99.90
41447;DHT22;27185;52.040;4.490;2023-05-07T09:24:30;24.70;99.90
41447;DHT22;27185;52.040;4.490;2023-05-07T09:27:20;25.00;99.90
41447;DHT22;27185;52.040;4.490;2023-05-07T09:30:09;25.20;99.90
41447;DHT22;27185;52.040;4.490;2023-05-07T09:32:55;25.30;99.90
41447;DHT22;27185;52.040;4.490;2023-05-07T09:35:41;25.40;99.90
41447;DHT22;27185;52.040;4.490;2023-05-07T09:38:27;25.50;99.90
41447;DHT22;27185;52.040;4.490;2023-05-07T09:41:13;25.60;99.90
41447;DHT22;27185;52.040;4.490;2023-05-07T09:43:59;25.60;99.90
41447;DHT22;27185;52.040;4.490;2023-05-07T09:46:50;25.70;99.90
41447;DHT22;27185;52.040;4.490;2023-05-07T09:49:39;25.70;99.90
41447;DHT22;27185;52.040;4.490;2023-05-07T09:52:27;25.70;99.90
41447;DHT22;27185;52.040;4.490;2023-05-07T09:55:18;25.70;99.90
41447;DHT22;27185;52.040;4.490;2023-05-07T09:58:06;25.60;99.90
41447;DHT22;27185;52.040;4.490;2023-05-07T10:00:52;25.50;99.90
41447;DHT22;27185;52.040;4.490;2023-05-07T10:03:40;25.40;99.90
41447;DHT22;27185;52.040;4.490;2023-05-07T10:06:26;25.30;99.90
41447;DHT22;27185;52.040;4.490;2023-05-07T10:09:13;25.20;99.90
41447;DHT22;27185;52.040;4.490;2023-05-07T10:12:00;25.20;99.90
41447;DHT22;27185;52.040;4.490;2023-05-07T10:14:46;25.20;97.70
41447;DHT22;27185;52.040;4.490;2023-05-07T10:17:37;25.20;99.90
41447;DHT22;27185;52.040;4.490;2023-05-07T10:20:23;25.10;99.90
41447;DHT22;27185;52.040;4.490;2023-05-07T10:23:13;25.10;99.90
41447;DHT22;27185;52.040;4.490;2023-05-07T10:26:03;25.20;99.90
41447;DHT22;27185;52.040;4.490;2023-05-07T10:28:53;25.20;99.90
41447;DHT22;27185;52.040;4.490;2023-05-07T10:34:44;25.50;98.20
41447;DHT22;27185;52.040;4.490;2023-05-07T10:37:31;25.60;99.90
41447;DHT22;27185;52.040;4.490;2023-05-07T10:40:17;25.70;99.90
41447;DHT22;27185;52.040;4.490;2023-05-07T10:43:05;25.70;99.90
41447;DHT22;27185;52.040;4.490;2023-05-07T10:46:14;25.70;99.90
41447;DHT22;27185;52.040;4.490;2023-05-07T10:52:11;25.80;99.90
41447;DHT22;27185;52.040;4.490;2023-05-07T10:58:26;25.70;99.30
41447;DHT22;27185;52.040;4.490;2023-05-07T11:01:12;25.70;99.50
41447;DHT22;27185;52.040;4.490;2023-05-07T11:04:13;25.70;99.90
41447;DHT22;27185;52.040;4.490;2023-05-07T11:09:56;26.00;99.90
41447;DHT22;27185;52.040;4.490;2023-05-07T11:15:35;26.40;99.90
41447;DHT22;27185;52.040;4.490;2023-05-07T11:18:21;26.50;99.90
41447;DHT22;27185;52.040;4.490;2023-05-07T11:21:06;26.60;99.90
41447;DHT22;27185;52.040;4.490;2023-05-07T11:23:55;26.60;99.90
41447;DHT22;27185;52.040;4.490;2023-05-07T11:26:47;26.60;99.90
41447;DHT22;27185;52.040;4.490;2023-05-07T11:29:33;26.60;99.70
41447;DHT22;27185;52.040;4.490;2023-05-07T11:32:23;26.70;99.90
41447;DHT22;27185;52.040;4.490;2023-05-07T11:35:09;26.70;99.20
41447;DHT22;27185;52.040;4.490;2023-05-07T11:37:59;26.80;99.90
41447;DHT22;27185;52.040;4.490;2023-05-07T11:40:53;26.90;97.90
41447;DHT22;27185;52.040;4.490;2023-05-07T11:43:53;27.00;98.10
41447;DHT22;27185;52.040;4.490;2023-05-07T11:46:43;27.00;98.90
41447;DHT22;27185;52.040;4.490;2023-05-07T11:49:30;27.00;98.90
41447;DHT22;27185;52.040;4.490;2023-05-07T11:52:17;27.00;97.20
41447;DHT22;27185;52.040;4.490;2023-05-07T11:55:03;26.90;98.50
41447;DHT22;27185;52.040;4.490;2023-05-07T11:57:50;26.80;98.30
41447;DHT22;27185;52.040;4.490;2023-05-07T12:00:35;26.80;99.20
41447;DHT22;27185;52.040;4.490;2023-05-07T12:03:21;26.90;99.60
41447;DHT22;27185;52.040;4.490;2023-05-07T12:06:07;26.90;97.60
41447;DHT22;27185;52.040;4.490;2023-05-07T12:08:53;26.90;97.90
41447;DHT22;27185;52.040;4.490;2023-05-07T12:11:38;26.80;97.10
41447;DHT22;27185;52.040;4.490;2023-05-07T12:14:27;26.70;98.00
41447;DHT22;27185;52.040;4.490;2023-05-07T12:17:14;26.50;96.50
41447;DHT22;27185;52.040;4.490;2023-05-07T12:20:01;26.40;97.30
41447;DHT22;27185;52.040;4.490;2023-05-07T12:22:47;26.20;98.30
41447;DHT22;27185;52.040;4.490;2023-05-07T12:25:36;26.00;98.40
41447;DHT22;27185;52.040;4.490;2023-05-07T12:28:21;25.80;98.20
41447;DHT22;27185;52.040;4.490;2023-05-07T12:31:07;25.70;98.50
41447;DHT22;27185;52.040;4.490;2023-05-07T12:33:53;25.40;98.60
41447;DHT22;27185;52.040;4.490;2023-05-07T12:36:39;25.10;99.00
41447;DHT22;27185;52.040;4.490;2023-05-07T12:39:25;24.70;99.70
41447;DHT22;27185;52.040;4.490;2023-05-07T12:42:20;24.30;99.90
41447;DHT22;27185;52.040;4.490;2023-05-07T12:45:12;23.70;99.90
41447;DHT22;27185;52.040;4.490;2023-05-07T12:48:01;23.20;99.90
41447;DHT22;27185;52.040;4.490;2023-05-07T12:50:55;22.50;99.90
41447;DHT22;27185;52.040;4.490;2023-05-07T12:53:42;21.90;99.90
41447;DHT22;27185;52.040;4.490;2023-05-07T12:56:31;21.50;99.90
41447;DHT22;27185;52.040;4.490;2023-05-07T12:59:16;21.10;99.90
41447;DHT22;27185;52.040;4.490;2023-05-07T13:02:02;20.70;99.90
41447;DHT22;27185;52.040;4.490;2023-05-07T13:04:47;20.50;99.90
41447;DHT22;27185;52.040;4.490;2023-05-07T13:07:33;20.30;99.90
41447;DHT22;27185;52.040;4.490;2023-05-07T13:10:19;20.20;99.90
41447;DHT22;27185;52.040;4.490;2023-05-07T13:13:05;20.10;99.90
41447;DHT22;27185;52.040;4.490;2023-05-07T13:15:50;20.10;99.90
41447;DHT22;27185;52.040;4.490;2023-05-07T13:18:39;20.00;99.90
41447;DHT22;27185;52.040;4.490;2023-05-07T13:21:25;20.00;99.90
41447;DHT22;27185;52.040;4.490;2023-05-07T13:24:12;20.00;99.90
41447;DHT22;27185;52.040;4.490;2023-05-07T13:26:57;20.00;99.90
41447;DHT22;27185;52.040;4.490;2023-05-07T13:29:43;20.10;99.90
41447;DHT22;27185;52.040;4.490;2023-05-07T13:32:29;20.10;99.90
41447;DHT22;27185;52.040;4.490;2023-05-07T13:35:15;20.10;99.90
41447;DHT22;27185;52.040;4.490;2023-05-07T13:38:01;20.20;99.90
41447;DHT22;27185;52.040;4.490;2023-05-07T13:40:47;20.20;99.90
41447;DHT22;27185;52.040;4.490;2023-05-07T13:43:32;20.20;99.90
41447;DHT22;27185;52.040;4.490;2023-05-07T13:46:18;20.30;99.90
41447;DHT22;27185;52.040;4.490;2023-05-07T13:49:04;20.30;99.90
41447;DHT22;27185;52.040;4.490;2023-05-07T13:51:50;20.40;99.90
41447;DHT22;27185;52.040;4.490;2023-05-07T13:54:35;20.40;99.90
41447;DHT22;27185;52.040;4.490;2023-05-07T13:57:21;20.40;99.90
41447;DHT22;27185;52.040;4.490;2023-05-07T14:00:07;20.50;99.90
41447;DHT22;27185;52.040;4.490;2023-05-07T14:02:54;20.50;99.90
41447;DHT22;27185;52.040;4.490;2023-05-07T14:05:40;20.50;99.90
41447;DHT22;27185;52.040;4.490;2023-05-07T14:08:26;20.50;99.90
41447;DHT22;27185;52.040;4.490;2023-05-07T14:11:11;20.50;99.90
41447;DHT22;27185;52.040;4.490;2023-05-07T14:13:57;20.50;99.90
41447;DHT22;27185;52.040;4.490;2023-05-07T14:16:44;20.50;99.90
41447;DHT22;27185;52.040;4.490;2023-05-07T14:19:30;20.60;99.90
41447;DHT22;27185;52.040;4.490;2023-05-07T14:22:15;20.60;99.90
41447;DHT22;27185;52.040;4.490;2023-05-07T14:25:01;20.60;99.90
41447;DHT22;27185;52.040;4.490;2023-05-07T14:27:46;20.70;99.90
41447;DHT22;27185;52.040;4.490;2023-05-07T14:30:32;20.70;99.90
41447;DHT22;27185;52.040;4.490;2023-05-07T14:33:18;20.70;99.90
41447;DHT22;27185;52.040;4.490;2023-05-07T14:36:04;20.70;99.90
41447;DHT22;27185;52.040;4.490;2023-05-07T14:38:50;20.70;99.90
41447;DHT22;27185;52.040;4.490;2023-05-07T14:41:35;20.70;99.90
41447;DHT22;27185;52.040;4.490;2023-05-07T14:44:21;20.70;99.90
41447;DHT22;27185;52.040;4.490;2023-05-07T14:47:07;20.60;99.90
41447;DHT22;27185;52.040;4.490;2023-05-07T14:49:53;20.60;99.90
41447;DHT22;27185;52.040;4.490;2023-05-07T14:52:39;20.60;99.90
41447;DHT22;27185;52.040;4.490;2023-05-07T14:55:25;20.60;99.90
41447;DHT22;27185;52.040;4.490;2023-05-07T14:58:11;20.60;99.90
41447;DHT22;27185;52.040;4.490;2023-05-07T15:00:56;20.60;99.90
41447;DHT22;27185;52.040;4.490;2023-05-07T15:03:42;20.50;99.90
41447;DHT22;27185;52.040;4.490;2023-05-07T15:06:28;20.50;99.90
41447;DHT22;27185;52.040;4.490;2023-05-07T15:09:14;20.50;99.90
41447;DHT22;27185;52.040;4.490;2023-05-07T15:12:00;20.40;99.90
41447;DHT22;27185;52.040;4.490;2023-05-07T15:14:47;20.40;99.90
41447;DHT22;27185;52.040;4.490;2023-05-07T15:17:33;20.40;99.90
41447;DHT22;27185;52.040;4.490;2023-05-07T15:20:18;20.40;99.90
41447;DHT22;27185;52.040;4.490;2023-05-07T15:23:05;20.40;99.90
41447;DHT22;27185;52.040;4.490;2023-05-07T15:25:52;20.30;99.90
41447;DHT22;27185;52.040;4.490;2023-05-07T15:28:37;20.20;99.90
41447;DHT22;27185;52.040;4.490;2023-05-07T15:31:24;20.20;99.90
41447;DHT22;27185;52.040;4.490;2023-05-07T15:34:10;20.10;99.90
41447;DHT22;27185;52.040;4.490;2023-05-07T15:36:56;20.10;99.90
41447;DHT22;27185;52.040;4.490;2023-05-07T15:39:42;20.10;99.90
41447;DHT22;27185;52.040;4.490;2023-05-07T15:42:28;20.10;99.90
41447;DHT22;27185;52.040;4.490;2023-05-07T15:44:57;20.10;99.90
41447;DHT22;27185;52.040;4.490;2023-05-07T15:47:43;20.00;99.90
41447;DHT22;27185;52.040;4.490;2023-05-07T15:50:29;20.00;99.90
41447;DHT22;27185;52.040;4.490;2023-05-07T15:53:14;20.00;99.90
41447;DHT22;27185;52.040;4.490;2023-05-07T15:56:00;20.00;99.90
41447;DHT22;27185;52.040;4.490;2023-05-07T15:58:45;20.00;99.90
41447;DHT22;27185;52.040;4.490;2023-05-07T16:01:32;20.00;99.90
41447;DHT22;27185;52.040;4.490;2023-05-07T16:04:18;20.00;99.90
41447;DHT22;27185;52.040;4.490;2023-05-07T16:07:03;19.90;99.90
41447;DHT22;27185;52.040;4.490;2023-05-07T16:09:49;19.90;99.90
41447;DHT22;27185;52.040;4.490;2023-05-07T16:12:35;19.90;99.90
41447;DHT22;27185;52.040;4.490;2023-05-07T16:15:20;19.80;99.90
41447;DHT22;27185;52.040;4.490;2023-05-07T16:18:06;19.80;99.90
41447;DHT22;27185;52.040;4.490;2023-05-07T16:20:52;19.70;99.90
41447;DHT22;27185;52.040;4.490;2023-05-07T16:23:38;19.70;99.90
41447;DHT22;27185;52.040;4.490;2023-05-07T16:26:24;19.60;99.90
41447;DHT22;27185;52.040;4.490;2023-05-07T16:29:10;19.60;99.90
41447;DHT22;27185;52.040;4.490;2023-05-07T16:31:56;19.60;99.90
41447;DHT22;27185;52.040;4.490;2023-05-07T16:34:42;19.60;99.90
41447;DHT22;27185;52.040;4.490;2023-05-07T16:37:27;19.60;99.90
41447;DHT22;27185;52.040;4.490;2023-05-07T16:40:13;19.60;99.90
41447;DHT22;27185;52.040;4.490;2023-05-07T16:42:58;19.60;99.90
41447;DHT22;27185;52.040;4.490;2023-05-07T16:45:45;19.60;99.90
41447;DHT22;27185;52.040;4.490;2023-05-07T16:48:31;19.60;99.90
41447;DHT22;27185;52.040;4.490;2023-05-07T16:51:16;19.60;99.90
41447;DHT22;27185;52.040;4.490;2023-05-07T16:54:02;19.60;99.90
41447;DHT22;27185;52.040;4.490;2023-05-07T16:56:47;19.60;99.90
41447;DHT22;27185;52.040;4.490;2023-05-07T16:59:33;19.60;99.90
41447;DHT22;27185;52.040;4.490;2023-05-07T17:02:19;19.60;99.90
41447;DHT22;27185;52.040;4.490;2023-05-07T17:05:04;19.60;99.90
41447;DHT22;27185;52.040;4.490;2023-05-07T17:07:50;19.60;99.90
41447;DHT22;27185;52.040;4.490;2023-05-07T17:10:36;19.60;99.90
41447;DHT22;27185;52.040;4.490;2023-05-07T17:13:22;19.60;99.90
41447;DHT22;27185;52.040;4.490;2023-05-07T17:16:07;19.60;99.90
41447;DHT22;27185;52.040;4.490;2023-05-07T17:18:53;19.60;99.90
41447;DHT22;27185;52.040;4.490;2023-05-07T17:21:38;19.60;99.90
41447;DHT22;27185;52.040;4.490;2023-05-07T17:24:24;19.60;99.90
41447;DHT22;27185;52.040;4.490;2023-05-07T17:27:10;19.60;99.90
41447;DHT22;27185;52.040;4.490;2023-05-07T17:29:55;19.70;99.90
41447;DHT22;27185;52.040;4.490;2023-05-07T17:32:41;19.70;99.90
41447;DHT22;27185;52.040;4.490;2023-05-07T17:35:28;19.70;99.90
41447;DHT22;27185;52.040;4.490;2023-05-07T17:38:16;19.70;99.90
41447;DHT22;27185;52.040;4.490;2023-05-07T17:41:01;19.70;99.90
41447;DHT22;27185;52.040;4.490;2023-05-07T17:43:47;19.70;99.90